Time;durP1;ratioP1;P1;durP2;ratioP2;P2;SDS_P1;SDS_P2;PMS_P1;PMS_P2;Temp;Humidity;BMP_temperature;BMP_pressure;BME280_temperature;BME280_humidity;BME280_pressure;Samples;Min_cycle;Max_cycle;Signal;HPM_P1;HPM_P2
2022/10/13 04:07:37;;;;;;;86.03;42.10;;;;;;;;;;6572263;28;20343;-90
2022/10/13 04:10:56;;;;;;;86.37;41.73;;;;;;;;;;6573702;28;20189;-91
2022/10/13 04:14:07;;;;;;;123.37;54.10;;;;;;;;;;6556801;28;20297;-91
2022/10/13 04:17:18;;;;;;;87.47;45.17;;;;;;;;;;6555508;28;20173;-91
2022/10/13 04:20:37;;;;;;;72.47;39.40;;;;;;;;;;6556366;28;20175;-91
2022/10/13 04:23:47;;;;;;;70.63;36.43;;;;;;;;;;6574009;28;20169;-91
2022/10/13 04:26:58;;;;;;;67.57;36.33;;;;;;;;;;6574082;28;20193;-91
2022/10/13 04:30:08;;;;;;;68.27;35.33;;;;;;;;;;6572620;28;20204;-91
2022/10/13 04:33:20;;;;;;;61.30;34.10;;;;;;;;;;6572485;28;20239;-91
2022/10/13 04:36:30;;;;;;;61.60;31.70;;;;;;;;;;6555562;28;20173;-90
2022/10/13 04:39:41;;;;;;;63.57;33.20;;;;;;;;;;6572414;28;20646;-91
2022/10/13 04:42:51;;;;;;;54.67;31.40;;;;;;;;;;6573255;28;20177;-91
2022/10/13 04:46:02;;;;;;;62.87;31.83;;;;;;;;;;6572573;28;20173;-90
2022/10/13 04:49:14;;;;;;;57.10;31.87;;;;;;;;;;6571440;28;20232;-90
2022/10/13 04:52:25;;;;;;;64.10;33.90;;;;;;;;;;6572612;28;20534;-90
2022/10/13 04:55:36;;;;;;;69.93;32.67;;;;;;;;;;6573069;28;20197;-90
2022/10/13 04:58:48;;;;;;;52.73;31.87;;;;;;;;;;6572979;28;20173;-90
2022/10/13 05:01:58;;;;;;;62.60;34.40;;;;;;;;;;6555185;28;20227;-90
2022/10/13 05:05:09;;;;;;;58.23;32.77;;;;;;;;;;6573078;28;20549;-91
2022/10/13 05:08:20;;;;;;;56.90;33.07;;;;;;;;;;6572909;28;20169;-90
2022/10/13 05:11:32;;;;;;;62.90;34.87;;;;;;;;;;6572408;28;20169;-90
2022/10/13 05:14:42;;;;;;;57.53;32.70;;;;;;;;;;6571402;28;20205;-90
2022/10/13 05:17:52;;;;;;;61.33;33.87;;;;;;;;;;6572032;28;20662;-90
2022/10/13 05:21:07;;;;;;;59.67;34.37;;;;;;;;;;6554690;28;20173;-90
2022/10/13 05:24:19;;;;;;;72.33;38.27;;;;;;;;;;6554374;28;20185;-90
2022/10/13 05:27:30;;;;;;;67.37;37.50;;;;;;;;;;6554406;28;20177;-90
2022/10/13 05:30:40;;;;;;;66.13;39.20;;;;;;;;;;6571345;28;20337;-90
2022/10/13 05:33:51;;;;;;;73.83;39.83;;;;;;;;;;6571302;28;20244;-90
2022/10/13 05:37:01;;;;;;;77.47;40.87;;;;;;;;;;6572704;28;20181;-90
2022/10/13 05:40:12;;;;;;;76.97;41.67;;;;;;;;;;6554351;28;20196;-91
2022/10/13 05:43:22;;;;;;;72.73;41.03;;;;;;;;;;6553562;28;20196;-90
2022/10/13 05:46:33;;;;;;;65.17;37.93;;;;;;;;;;6571242;28;20177;-90
2022/10/13 05:49:43;;;;;;;66.63;39.33;;;;;;;;;;6571431;28;20565;-90
2022/10/13 05:52:53;;;;;;;62.67;36.10;;;;;;;;;;6571909;28;20171;-91
2022/10/13 05:56:07;;;;;;;84.57;45.13;;;;;;;;;;6571453;28;20507;-91
2022/10/13 05:59:18;;;;;;;79.23;42.53;;;;;;;;;;6552676;28;20212;-90
2022/10/13 06:02:33;;;;;;;64.27;37.73;;;;;;;;;;6571598;28;20223;-90
2022/10/13 06:05:46;;;;;;;63.73;35.67;;;;;;;;;;6553774;28;20628;-90
2022/10/13 06:08:56;;;;;;;64.57;37.00;;;;;;;;;;6571495;28;20260;-91
2022/10/13 06:12:08;;;;;;;40.90;26.87;;;;;;;;;;6571012;28;20200;-91
2022/10/13 06:15:18;;;;;;;40.13;28.23;;;;;;;;;;6570833;28;20208;-91
2022/10/13 06:18:28;;;;;;;41.87;27.83;;;;;;;;;;6570626;28;20264;-91
2022/10/13 06:21:39;;;;;;;41.87;31.80;;;;;;;;;;6569924;28;20247;-91
2022/10/13 06:24:49;;;;;;;50.03;34.23;;;;;;;;;;6570111;28;20177;-91
2022/10/13 06:28:00;;;;;;;49.50;33.07;;;;;;;;;;6570718;28;20177;-91
2022/10/13 06:31:10;;;;;;;43.63;28.87;;;;;;;;;;6569365;28;20195;-91
2022/10/13 06:34:20;;;;;;;40.83;27.90;;;;;;;;;;6569868;28;20205;-91
2022/10/13 06:37:32;;;;;;;42.13;29.33;;;;;;;;;;6569374;28;20201;-91
2022/10/13 06:40:43;;;;;;;39.33;29.77;;;;;;;;;;6570885;28;20201;-90
2022/10/13 06:43:53;;;;;;;46.42;31.08;;;;;;;;;;6570332;28;20195;-91
2022/10/13 06:47:04;;;;;;;39.97;30.73;;;;;;;;;;6570550;28;20193;-91
2022/10/13 06:50:14;;;;;;;43.75;30.48;;;;;;;;;;6569981;28;20487;-91
2022/10/13 06:53:27;;;;;;;45.72;29.17;;;;;;;;;;6569674;28;20209;-90
2022/10/13 06:56:38;;;;;;;39.63;28.42;;;;;;;;;;6570023;28;20210;-91
2022/10/13 06:59:49;;;;;;;29.52;25.08;;;;;;;;;;6569976;28;20184;-90
2022/10/13 07:02:59;;;;;;;30.40;23.45;;;;;;;;;;6569018;28;20177;-90
2022/10/13 07:06:10;;;;;;;29.88;20.98;;;;;;;;;;6570436;28;20232;-90
2022/10/13 07:09:20;;;;;;;29.05;20.77;;;;;;;;;;6569847;28;20177;-90
2022/10/13 07:12:30;;;;;;;31.05;20.20;;;;;;;;;;6570112;28;20256;-90
2022/10/13 07:15:41;;;;;;;30.27;19.52;;;;;;;;;;6569859;28;20560;-90
2022/10/13 07:18:51;;;;;;;30.08;18.70;;;;;;;;;;6573622;28;20179;-90
2022/10/13 07:22:02;;;;;;;24.23;17.40;;;;;;;;;;6575103;28;20200;-90
2022/10/13 07:25:12;;;;;;;19.25;14.98;;;;;;;;;;6574554;28;20239;-90
2022/10/13 07:28:25;;;;;;;25.80;16.70;;;;;;;;;;6574220;28;20634;-90
2022/10/13 07:31:35;;;;;;;19.65;13.65;;;;;;;;;;6573560;28;20181;-89
2022/10/13 07:34:46;;;;;;;17.00;11.95;;;;;;;;;;6574483;28;20195;-89
2022/10/13 07:37:56;;;;;;;16.27;11.02;;;;;;;;;;6575384;28;20185;-89
2022/10/13 07:41:08;;;;;;;14.43;10.10;;;;;;;;;;6574609;28;20172;-91
2022/10/13 07:44:19;;;;;;;20.65;12.73;;;;;;;;;;6573984;28;20185;-90
2022/10/13 07:47:29;;;;;;;14.48;10.38;;;;;;;;;;6574430;28;20197;-90
2022/10/13 07:50:40;;;;;;;11.45;8.35;;;;;;;;;;6573643;28;20645;-89
2022/10/13 07:53:51;;;;;;;11.23;7.95;;;;;;;;;;6573897;28;20189;-89
2022/10/13 07:57:02;;;;;;;10.30;7.93;;;;;;;;;;6574274;28;20188;-89
2022/10/13 08:00:12;;;;;;;12.35;8.90;;;;;;;;;;6556540;28;20177;-89
2022/10/13 08:03:23;;;;;;;12.88;9.68;;;;;;;;;;6574051;28;20172;-89
2022/10/13 08:06:33;;;;;;;12.57;8.65;;;;;;;;;;6573424;28;20225;-89
2022/10/13 08:09:43;;;;;;;10.90;8.52;;;;;;;;;;6573953;28;20193;-88
2022/10/13 08:12:54;;;;;;;11.13;7.95;;;;;;;;;;6573622;28;20565;-89
2022/10/13 08:16:04;;;;;;;11.15;7.00;;;;;;;;;;6556857;28;20641;-89
2022/10/13 08:19:15;;;;;;;9.77;7.28;;;;;;;;;;6573217;28;20169;-89
2022/10/13 08:22:26;;;;;;;12.73;6.87;;;;;;;;;;6573155;28;20165;-88
2022/10/13 08:25:39;;;;;;;12.23;6.87;;;;;;;;;;6573202;28;20180;-88
2022/10/13 08:28:50;;;;;;;9.57;5.70;;;;;;;;;;6555332;28;20173;-88
2022/10/13 08:32:01;;;;;;;8.73;5.87;;;;;;;;;;6573781;28;20172;-88
2022/10/13 08:35:11;;;;;;;7.47;5.70;;;;;;;;;;6573183;28;20653;-88
2022/10/13 08:38:25;;;;;;;8.97;6.00;;;;;;;;;;6573619;28;20582;-88
2022/10/13 08:41:37;;;;;;;8.77;5.70;;;;;;;;;;6573473;28;20172;-88
2022/10/13 08:44:55;;;;;;;11.03;6.00;;;;;;;;;;6573607;28;20169;-88
2022/10/13 08:48:12;;;;;;;10.17;6.03;;;;;;;;;;6572573;28;20189;-89
2022/10/13 08:51:22;;;;;;;8.50;5.90;;;;;;;;;;6555542;28;20205;-88
2022/10/13 08:54:33;;;;;;;8.73;6.60;;;;;;;;;;6572922;28;20494;-89
2022/10/13 08:57:43;;;;;;;10.60;6.50;;;;;;;;;;6573666;28;20613;-88
2022/10/13 09:01:09;;;;;;;11.97;6.33;;;;;;;;;;6573005;28;20269;-88
2022/10/13 09:04:19;;;;;;;14.97;6.87;;;;;;;;;;6555230;28;20181;-89
2022/10/13 09:07:34;;;;;;;6.73;5.27;;;;;;;;;;6572449;28;20312;-89
2022/10/13 09:10:45;;;;;;;8.10;5.50;;;;;;;;;;6572483;28;20173;-89
2022/10/13 09:13:57;;;;;;;9.43;4.90;;;;;;;;;;6574625;28;20200;-89
2022/10/13 09:17:15;;;;;;;9.23;5.50;;;;;;;;;;6573005;28;20223;-88
2022/10/13 09:20:26;;;;;;;8.97;5.10;;;;;;;;;;6585604;28;20180;-88
2022/10/13 09:23:36;;;;;;;7.40;5.10;;;;;;;;;;6579313;28;20514;-88
2022/10/13 09:26:48;;;;;;;6.63;4.90;;;;;;;;;;6587460;28;20180;-88
2022/10/13 09:30:19;;;;;;;9.63;4.90;;;;;;;;;;6573581;28;20180;-88
2022/10/13 09:33:33;;;;;;;9.70;5.70;;;;;;;;;;6555749;28;20205;-88
2022/10/13 09:36:56;;;;;;;7.13;5.37;;;;;;;;;;6572033;28;20193;-88
2022/10/13 09:40:18;;;;;;;7.70;5.27;;;;;;;;;;6554003;28;20618;-87
2022/10/13 09:43:30;;;;;;;7.10;5.23;;;;;;;;;;6572680;28;20169;-88
2022/10/13 09:46:49;;;;;;;10.90;6.13;;;;;;;;;;6572101;28;20177;-87
2022/10/13 09:50:13;;;;;;;12.00;6.40;;;;;;;;;;6571797;28;20535;-88
2022/10/13 09:53:23;;;;;;;9.03;5.77;;;;;;;;;;6572156;28;20255;-87
2022/10/13 09:56:48;;;;;;;12.50;6.03;;;;;;;;;;6571373;28;20618;-87
2022/10/13 10:00:05;;;;;;;11.20;5.97;;;;;;;;;;6572564;28;20252;-88
2022/10/13 10:03:18;;;;;;;11.07;6.63;;;;;;;;;;6554038;28;20814;-88
2022/10/13 10:06:28;;;;;;;8.43;6.10;;;;;;;;;;6570752;28;20232;-88
2022/10/13 10:09:43;;;;;;;14.13;6.90;;;;;;;;;;6571109;28;20211;-88
2022/10/13 10:12:53;;;;;;;7.07;5.30;;;;;;;;;;6570827;28;20173;-87
2022/10/13 10:16:10;;;;;;;9.57;5.87;;;;;;;;;;6571288;28;20262;-87
2022/10/13 10:19:29;;;;;;;10.00;5.60;;;;;;;;;;6553513;28;20649;-88
2022/10/13 10:22:59;;;;;;;9.80;5.60;;;;;;;;;;6571980;28;20173;-87
2022/10/13 10:26:15;;;;;;;6.13;4.80;;;;;;;;;;6571752;28;20179;-88
2022/10/13 10:29:41;;;;;;;6.43;4.90;;;;;;;;;;6571918;28;20169;-87
2022/10/13 10:33:07;;;;;;;6.43;4.93;;;;;;;;;;6570653;28;20516;-87
2022/10/13 10:36:31;;;;;;;6.93;4.60;;;;;;;;;;6571150;28;20196;-87
2022/10/13 10:39:41;;;;;;;8.23;4.97;;;;;;;;;;6570891;28;20243;-87
2022/10/13 10:43:01;;;;;;;8.03;5.33;;;;;;;;;;6570454;28;20296;-87
2022/10/13 10:46:15;;;;;;;7.97;4.87;;;;;;;;;;6570314;28;20645;-87
2022/10/13 10:49:29;;;;;;;7.77;4.90;;;;;;;;;;6570353;28;20247;-87
2022/10/13 10:52:40;;;;;;;9.63;5.40;;;;;;;;;;6570334;28;20180;-88
2022/10/13 10:55:53;;;;;;;5.73;5.00;;;;;;;;;;6570731;28;20519;-88
2022/10/13 10:59:16;;;;;;;6.10;4.63;;;;;;;;;;6570198;28;20173;-87
2022/10/13 11:02:36;;;;;;;10.10;5.33;;;;;;;;;;6553201;28;20308;-88
2022/10/13 11:05:56;;;;;;;7.00;5.40;;;;;;;;;;6553364;28;20232;-87
2022/10/13 11:09:08;;;;;;;5.43;4.43;;;;;;;;;;6570143;28;20176;-87
2022/10/13 11:12:22;;;;;;;6.60;4.80;;;;;;;;;;6568992;28;20177;-88
2022/10/13 11:15:42;;;;;;;5.20;4.40;;;;;;;;;;6569886;28;20196;-89
2022/10/13 11:19:06;;;;;;;6.47;4.83;;;;;;;;;;6570627;28;20205;-88
2022/10/13 11:22:19;;;;;;;7.27;5.00;;;;;;;;;;6570444;28;20165;-88
2022/10/13 11:25:40;;;;;;;7.40;4.33;;;;;;;;;;6568829;28;20630;-88
2022/10/13 11:28:50;;;;;;;6.97;4.47;;;;;;;;;;6569140;28;20184;-88
2022/10/13 11:32:03;;;;;;;6.63;4.33;;;;;;;;;;6570760;28;20486;-87
2022/10/13 11:35:19;;;;;;;6.67;4.50;;;;;;;;;;6570671;28;20192;-88
2022/10/13 11:38:33;;;;;;;9.70;5.20;;;;;;;;;;6568545;28;20268;-88
2022/10/13 11:42:07;;;;;;;5.20;4.47;;;;;;;;;;6569713;28;20182;-88
2022/10/13 11:45:36;;;;;;;6.63;4.80;;;;;;;;;;6561238;28;20220;-88
2022/10/13 11:48:47;;;;;;;6.30;4.73;;;;;;;;;;6570078;28;20196;-87
2022/10/13 11:52:06;;;;;;;12.20;7.47;;;;;;;;;;6569419;28;20181;-87
2022/10/13 11:55:18;;;;;;;11.60;7.87;;;;;;;;;;6569709;28;20201;-88
2022/10/13 11:58:30;;;;;;;8.73;6.10;;;;;;;;;;6569411;28;20189;-87
2022/10/13 12:01:42;;;;;;;9.70;6.33;;;;;;;;;;6569865;28;20184;-87
2022/10/13 12:05:02;;;;;;;9.17;6.37;;;;;;;;;;6572992;28;20225;-87
2022/10/13 12:08:12;;;;;;;5.77;5.13;;;;;;;;;;6574527;28;20158;-88
2022/10/13 12:11:25;;;;;;;6.97;4.83;;;;;;;;;;6574511;28;20235;-87
2022/10/13 12:14:42;;;;;;;8.83;5.40;;;;;;;;;;6574469;28;20201;-87
2022/10/13 12:17:52;;;;;;;5.23;4.43;;;;;;;;;;6574464;28;20184;-88
2022/10/13 12:21:07;;;;;;;6.17;5.37;;;;;;;;;;6573597;28;20165;-88
2022/10/13 12:24:20;;;;;;;9.60;5.50;;;;;;;;;;6574130;28;20169;-88
2022/10/13 12:27:39;;;;;;;8.00;4.77;;;;;;;;;;6573783;28;20255;-88
2022/10/13 12:30:57;;;;;;;9.10;4.47;;;;;;;;;;6574996;28;20169;-88
2022/10/13 12:34:16;;;;;;;6.23;5.00;;;;;;;;;;6573848;28;20293;-88
2022/10/13 12:37:29;;;;;;;9.43;5.90;;;;;;;;;;6573649;28;20177;-87
2022/10/13 12:40:40;;;;;;;5.60;5.07;;;;;;;;;;6556671;28;20690;-87
2022/10/13 12:43:51;;;;;;;6.10;5.50;;;;;;;;;;6573002;28;20177;-88
2022/10/13 12:47:02;;;;;;;8.73;6.77;;;;;;;;;;6573017;28;20536;-88
2022/10/13 12:50:27;;;;;;;5.67;4.40;;;;;;;;;;6573198;28;20252;-88
2022/10/13 12:53:38;;;;;;;7.30;4.77;;;;;;;;;;6573087;28;20213;-88
2022/10/13 12:56:49;;;;;;;6.13;4.80;;;;;;;;;;6555475;28;20185;-88
2022/10/13 13:00:03;;;;;;;7.00;4.90;;;;;;;;;;6573923;28;20224;-88
2022/10/13 13:03:19;;;;;;;7.60;5.40;;;;;;;;;;6556304;28;20606;-88
2022/10/13 13:06:31;;;;;;;7.57;5.00;;;;;;;;;;6573342;28;20538;-88
2022/10/13 13:09:41;;;;;;;10.17;5.47;;;;;;;;;;6573157;28;20173;-88
2022/10/13 13:12:53;;;;;;;7.67;4.90;;;;;;;;;;6572985;28;20261;-88
2022/10/13 13:16:17;;;;;;;5.87;5.07;;;;;;;;;;6572045;28;20199;-88
2022/10/13 13:19:29;;;;;;;7.17;4.63;;;;;;;;;;6572075;28;20670;-88
2022/10/13 13:22:41;;;;;;;7.17;5.27;;;;;;;;;;6554994;28;20625;-88
2022/10/13 13:26:11;;;;;;;9.03;4.93;;;;;;;;;;6572208;28;20522;-88
2022/10/13 13:29:21;;;;;;;8.40;5.90;;;;;;;;;;6572005;28;20177;-88
2022/10/13 13:32:31;;;;;;;7.37;5.77;;;;;;;;;;6571866;28;20529;-88
2022/10/13 13:35:42;;;;;;;7.93;5.07;;;;;;;;;;6555230;28;20204;-88
2022/10/13 13:38:53;;;;;;;5.43;4.93;;;;;;;;;;6571706;28;20185;-88
2022/10/13 13:42:03;;;;;;;9.63;5.80;;;;;;;;;;6571869;28;20231;-89
2022/10/13 13:45:14;;;;;;;5.30;4.80;;;;;;;;;;6570958;28;20186;-88
2022/10/13 13:48:25;;;;;;;6.67;5.90;;;;;;;;;;6571850;28;20265;-88
2022/10/13 13:51:35;;;;;;;6.40;5.10;;;;;;;;;;6572144;28;20280;-88
2022/10/13 13:54:46;;;;;;;8.10;5.80;;;;;;;;;;6571939;28;20540;-88
2022/10/13 13:57:57;;;;;;;10.10;5.50;;;;;;;;;;6571537;28;20173;-88
2022/10/13 14:01:07;;;;;;;9.30;8.23;;;;;;;;;;6571145;28;20257;-88
2022/10/13 14:04:18;;;;;;;6.90;6.20;;;;;;;;;;6570898;28;20533;-88
2022/10/13 14:07:28;;;;;;;10.07;6.43;;;;;;;;;;6572214;28;20312;-88
2022/10/13 14:10:39;;;;;;;7.63;5.90;;;;;;;;;;6571372;28;20224;-89
2022/10/13 14:13:49;;;;;;;11.07;9.80;;;;;;;;;;6571467;28;20204;-88
2022/10/13 14:16:59;;;;;;;8.30;6.70;;;;;;;;;;6571559;28;20189;-88
2022/10/13 14:20:10;;;;;;;7.50;5.63;;;;;;;;;;6571043;28;20263;-88
2022/10/13 14:23:20;;;;;;;9.30;6.93;;;;;;;;;;6570573;28;20188;-88
2022/10/13 14:26:31;;;;;;;6.27;5.60;;;;;;;;;;6569936;28;20169;-89
2022/10/13 14:29:41;;;;;;;10.47;6.70;;;;;;;;;;6570387;28;20272;-89
2022/10/13 14:32:51;;;;;;;9.23;6.30;;;;;;;;;;6570390;28;20171;-88
2022/10/13 14:36:03;;;;;;;9.10;5.90;;;;;;;;;;6570898;28;20262;-89
2022/10/13 14:39:13;;;;;;;9.43;6.60;;;;;;;;;;6553330;28;20177;-89
2022/10/13 14:42:23;;;;;;;9.33;7.13;;;;;;;;;;6578057;28;20164;-87
2022/10/13 14:45:34;;;;;;;7.27;6.23;;;;;;;;;;6597873;28;20211;-89
2022/10/13 14:48:44;;;;;;;19.60;14.27;;;;;;;;;;6586751;28;20221;-88
2022/10/13 14:51:54;;;;;;;14.77;11.57;;;;;;;;;;6570719;28;20256;-88
2022/10/13 14:55:05;;;;;;;16.93;12.53;;;;;;;;;;6569875;28;20201;-88
2022/10/13 14:58:15;;;;;;;15.63;10.80;;;;;;;;;;6571037;28;20181;-89
2022/10/13 15:01:25;;;;;;;8.73;7.63;;;;;;;;;;6570659;28;20169;-88
2022/10/13 15:04:36;;;;;;;11.40;8.00;;;;;;;;;;6571139;28;20513;-88
2022/10/13 15:07:46;;;;;;;10.30;8.17;;;;;;;;;;6570578;28;20231;-89
2022/10/13 15:11:02;;;;;;;9.83;7.77;;;;;;;;;;6570426;28;20400;-88
2022/10/13 15:14:12;;;;;;;9.93;6.70;;;;;;;;;;6569439;28;20563;-88
2022/10/13 15:17:23;;;;;;;10.17;7.73;;;;;;;;;;6570306;28;20264;-89
2022/10/13 15:20:33;;;;;;;10.73;8.47;;;;;;;;;;6569750;28;20173;-89
2022/10/13 15:23:44;;;;;;;12.07;7.40;;;;;;;;;;6569506;28;20260;-89
2022/10/13 15:26:54;;;;;;;12.90;8.40;;;;;;;;;;6569534;28;20177;-89
2022/10/13 15:30:09;;;;;;;16.00;10.50;;;;;;;;;;6569852;28;20165;-89
2022/10/13 15:33:19;;;;;;;16.33;12.17;;;;;;;;;;6569868;28;20212;-89
2022/10/13 15:36:31;;;;;;;32.80;20.83;;;;;;;;;;6569757;28;20173;-89
2022/10/13 15:39:41;;;;;;;39.63;24.17;;;;;;;;;;6572292;28;20554;-89
2022/10/13 15:42:53;;;;;;;55.27;35.00;;;;;;;;;;6573525;28;20231;-90
2022/10/13 15:46:09;;;;;;;51.33;30.93;;;;;;;;;;6574335;28;20594;-91
2022/10/13 15:49:21;;;;;;;43.17;29.83;;;;;;;;;;6556862;28;20268;-90
2022/10/13 15:52:35;;;;;;;27.33;18.63;;;;;;;;;;6557900;28;20537;-90
2022/10/13 15:55:46;;;;;;;30.10;18.40;;;;;;;;;;6556959;28;20600;-89
2022/10/13 15:58:57;;;;;;;29.53;20.77;;;;;;;;;;6556318;28;20251;-91
2022/10/13 16:02:08;;;;;;;33.30;20.07;;;;;;;;;;6574971;28;20259;-88
2022/10/13 16:05:19;;;;;;;47.07;30.20;;;;;;;;;;6574276;28;20625;-89
2022/10/13 16:08:29;;;;;;;32.70;21.57;;;;;;;;;;6574734;28;20189;-92
2022/10/13 16:11:40;;;;;;;32.80;20.50;;;;;;;;;;6573581;28;20180;-88
2022/10/13 16:14:51;;;;;;;28.03;19.13;;;;;;;;;;6574790;28;20298;-88
2022/10/13 16:18:03;;;;;;;28.50;19.67;;;;;;;;;;6574559;28;20181;-88
2022/10/13 16:21:14;;;;;;;34.87;23.03;;;;;;;;;;6574563;28;20169;-90
2022/10/13 16:24:25;;;;;;;45.43;26.80;;;;;;;;;;6573358;28;20196;-89
2022/10/13 16:27:35;;;;;;;49.90;31.37;;;;;;;;;;6574097;28;20173;-90
2022/10/13 16:30:45;;;;;;;64.70;36.40;;;;;;;;;;6573427;28;20193;-92
2022/10/13 16:33:56;;;;;;;58.10;34.97;;;;;;;;;;6555229;28;20201;-92
2022/10/13 16:37:09;;;;;;;57.83;31.33;;;;;;;;;;6556599;28;20189;-91
2022/10/13 16:40:20;;;;;;;49.73;28.83;;;;;;;;;;6573987;28;20506;-91
2022/10/13 16:43:30;;;;;;;53.20;29.33;;;;;;;;;;6555180;28;20205;-90
2022/10/13 16:46:41;;;;;;;70.60;34.87;;;;;;;;;;6571682;28;20184;-91
2022/10/13 16:49:52;;;;;;;64.67;34.60;;;;;;;;;;6572158;28;20278;-91
2022/10/13 16:53:02;;;;;;;75.90;38.60;;;;;;;;;;6573887;28;20169;-91
2022/10/13 16:56:13;;;;;;;136.10;56.90;;;;;;;;;;6554633;28;20251;-91
2022/10/13 16:59:24;;;;;;;105.40;47.80;;;;;;;;;;6555036;28;20181;-91
2022/10/13 17:02:34;;;;;;;92.67;48.33;;;;;;;;;;6572733;28;20511;-92
2022/10/13 17:05:45;;;;;;;97.50;48.00;;;;;;;;;;6572168;28;20237;-91
2022/10/13 17:08:58;;;;;;;95.63;46.40;;;;;;;;;;6573038;28;20196;-91
2022/10/13 17:12:10;;;;;;;86.93;45.20;;;;;;;;;;6573524;28;20189;-92
2022/10/13 17:15:20;;;;;;;70.10;38.07;;;;;;;;;;6572448;28;20208;-93
2022/10/13 17:18:32;;;;;;;73.23;40.70;;;;;;;;;;6554766;28;20181;-92
2022/10/13 17:21:50;;;;;;;80.27;41.83;;;;;;;;;;6555124;28;20180;-93
2022/10/13 17:25:02;;;;;;;71.93;42.57;;;;;;;;;;6572318;28;20185;-92
2022/10/13 17:28:13;;;;;;;74.97;42.67;;;;;;;;;;6572908;28;20171;-92
2022/10/13 17:31:24;;;;;;;80.53;44.70;;;;;;;;;;6572231;28;20181;-91
2022/10/13 17:34:35;;;;;;;83.83;48.50;;;;;;;;;;6571124;28;20558;-92
2022/10/13 17:37:48;;;;;;;73.40;42.47;;;;;;;;;;6554256;28;20184;-92
2022/10/13 17:40:59;;;;;;;64.77;40.57;;;;;;;;;;6553957;28;20656;-91
2022/10/13 17:44:12;;;;;;;70.23;41.07;;;;;;;;;;6572082;28;20184;-92
2022/10/13 17:47:23;;;;;;;67.07;38.63;;;;;;;;;;6554590;28;20538;-92
2022/10/13 17:50:34;;;;;;;64.23;41.07;;;;;;;;;;6554719;28;20177;-94
2022/10/13 17:57:40;;;;;;;73.37;42.83;;;;;;;;;;6572347;28;20184;-91
2022/10/13 18:00:50;;;;;;;81.90;46.10;;;;;;;;;;6571287;28;20185;-92
2022/10/13 18:04:08;;;;;;;77.27;44.57;;;;;;;;;;6554355;28;20184;-92
2022/10/13 18:07:19;;;;;;;65.40;38.10;;;;;;;;;;6566940;28;20232;-93
2022/10/13 18:10:29;;;;;;;62.07;36.70;;;;;;;;;;6572626;28;20180;-92
2022/10/13 18:13:40;;;;;;;78.07;44.90;;;;;;;;;;6569697;28;20564;-92
2022/10/13 18:16:52;;;;;;;74.20;42.13;;;;;;;;;;6570277;28;20181;-91
2022/10/13 18:20:03;;;;;;;67.43;39.20;;;;;;;;;;6570167;28;20187;-92
2022/10/13 18:23:14;;;;;;;79.40;42.47;;;;;;;;;;6569498;28;20177;-93
2022/10/13 18:26:55;;;;;;;72.07;41.47;;;;;;;;;;6571301;28;20172;-93
2022/10/13 18:30:05;;;;;;;65.40;37.60;;;;;;;;;;6586585;28;20254;-93
2022/10/13 18:33:16;;;;;;;61.77;33.70;;;;;;;;;;6570947;28;20173;-93
2022/10/13 18:36:28;;;;;;;75.13;43.67;;;;;;;;;;6569502;28;20188;-93
2022/10/13 18:39:39;;;;;;;52.10;32.07;;;;;;;;;;6570682;28;20195;-93
2022/10/13 18:42:50;;;;;;;89.10;48.37;;;;;;;;;;6586385;28;20177;-92
2022/10/13 18:46:02;;;;;;;84.90;45.17;;;;;;;;;;6569027;28;20181;-92
2022/10/13 18:49:16;;;;;;;76.70;41.33;;;;;;;;;;6569633;28;20569;-91
2022/10/13 18:52:27;;;;;;;56.67;32.60;;;;;;;;;;6569600;28;20173;-91
2022/10/13 18:55:41;;;;;;;76.00;38.40;;;;;;;;;;6570530;28;20307;-93
2022/10/13 18:58:53;;;;;;;56.60;32.40;;;;;;;;;;6569173;28;20189;-91
2022/10/13 19:02:05;;;;;;;62.40;36.07;;;;;;;;;;6570360;28;20185;-89
2022/10/13 19:05:15;;;;;;;46.73;28.17;;;;;;;;;;6569367;28;20721;-91
2022/10/13 19:08:28;;;;;;;38.40;22.63;;;;;;;;;;6553102;28;20192;-92
2022/10/13 19:11:41;;;;;;;37.37;23.27;;;;;;;;;;6552674;28;20263;-91
2022/10/13 19:14:52;;;;;;;41.50;24.00;;;;;;;;;;6574222;28;20287;-92
2022/10/13 19:18:05;;;;;;;41.13;23.83;;;;;;;;;;6557652;28;20247;-92
2022/10/13 19:21:16;;;;;;;43.50;26.43;;;;;;;;;;6576053;28;20264;-90
2022/10/13 19:24:26;;;;;;;43.93;25.63;;;;;;;;;;6575553;28;20632;-93
2022/10/13 19:27:37;;;;;;;41.07;24.53;;;;;;;;;;6575275;28;20184;-92
2022/10/13 19:30:48;;;;;;;44.20;26.37;;;;;;;;;;6574053;28;20597;-92
2022/10/13 19:33:59;;;;;;;43.40;26.97;;;;;;;;;;6558653;28;20207;-92
2022/10/13 19:37:09;;;;;;;44.70;26.87;;;;;;;;;;6557857;28;20177;-92
2022/10/13 19:40:19;;;;;;;44.90;27.27;;;;;;;;;;6557095;28;20185;-92
2022/10/13 19:43:30;;;;;;;66.00;38.00;;;;;;;;;;6574781;28;20181;-92
2022/10/13 19:46:41;;;;;;;52.80;30.43;;;;;;;;;;6557048;28;20181;-90
2022/10/13 19:49:51;;;;;;;49.13;29.30;;;;;;;;;;6582564;23;20302;-91
2022/10/13 19:53:03;;;;;;;49.10;31.17;;;;;;;;;;6582259;28;20223;-90
2022/10/13 19:56:24;;;;;;;51.30;31.07;;;;;;;;;;6600341;28;20223;-89
2022/10/13 19:59:35;;;;;;;51.00;31.17;;;;;;;;;;6604710;28;20228;-91
2022/10/13 20:02:45;;;;;;;53.03;32.80;;;;;;;;;;6617773;28;20177;-92
2022/10/13 20:05:56;;;;;;;61.47;34.97;;;;;;;;;;6593756;28;20180;-91
2022/10/13 20:09:07;;;;;;;62.70;34.60;;;;;;;;;;6602890;28;20227;-90
2022/10/13 20:12:18;;;;;;;63.53;37.97;;;;;;;;;;6582008;28;20180;-91
2022/10/13 20:15:29;;;;;;;61.13;37.03;;;;;;;;;;6582136;28;20208;-90
2022/10/13 20:18:40;;;;;;;62.40;38.17;;;;;;;;;;6581653;28;20548;-90
2022/10/13 20:21:51;;;;;;;60.73;36.10;;;;;;;;;;6600767;28;20168;-90
2022/10/13 20:25:06;;;;;;;58.30;37.00;;;;;;;;;;6599827;28;20176;-89
2022/10/13 20:28:18;;;;;;;60.23;36.43;;;;;;;;;;6581412;28;20599;-90
2022/10/13 20:31:29;;;;;;;58.00;36.80;;;;;;;;;;6599769;28;20180;-90
2022/10/13 20:34:42;;;;;;;60.13;36.93;;;;;;;;;;6599223;28;20196;-90
2022/10/13 20:37:53;;;;;;;68.23;37.70;;;;;;;;;;6599804;28;20199;-90
2022/10/13 20:41:07;;;;;;;61.93;36.47;;;;;;;;;;6599283;28;20621;-92
2022/10/13 20:44:18;;;;;;;59.93;36.57;;;;;;;;;;6600001;28;20176;-91
2022/10/13 20:47:28;;;;;;;63.67;38.07;;;;;;;;;;6581950;28;20180;-93
2022/10/13 20:50:38;;;;;;;65.67;37.67;;;;;;;;;;6573710;28;20232;-92
2022/10/13 20:53:50;;;;;;;59.13;34.07;;;;;;;;;;6588696;28;20209;-91
2022/10/13 20:57:01;;;;;;;63.37;36.93;;;;;;;;;;6572879;28;20188;-92
2022/10/13 21:00:11;;;;;;;71.80;38.90;;;;;;;;;;6587492;28;20185;-92
2022/10/13 21:03:23;;;;;;;64.03;36.83;;;;;;;;;;6572510;28;20641;-91
2022/10/13 21:06:34;;;;;;;63.53;36.63;;;;;;;;;;6573019;28;20174;-91
2022/10/13 21:09:44;;;;;;;64.37;36.20;;;;;;;;;;6572542;28;20181;-93
2022/10/13 21:12:55;;;;;;;70.47;38.30;;;;;;;;;;6571215;28;20200;-92
2022/10/13 21:16:07;;;;;;;74.03;37.53;;;;;;;;;;6572715;28;20234;-92
2022/10/13 21:19:18;;;;;;;67.13;36.50;;;;;;;;;;6571384;28;20235;-91
2022/10/13 21:22:28;;;;;;;63.03;36.63;;;;;;;;;;6587560;28;20169;-91
2022/10/13 21:25:39;;;;;;;61.93;35.83;;;;;;;;;;6571620;28;20208;-91
2022/10/13 21:28:49;;;;;;;59.70;34.60;;;;;;;;;;6587582;28;20261;-91
2022/10/13 21:32:00;;;;;;;62.40;35.23;;;;;;;;;;6570532;28;20177;-91
2022/10/13 21:35:10;;;;;;;59.47;34.20;;;;;;;;;;6571868;28;20209;-92
2022/10/13 21:38:20;;;;;;;59.00;35.70;;;;;;;;;;6586699;28;20527;-91
2022/10/13 21:41:32;;;;;;;56.37;32.07;;;;;;;;;;6570790;28;20220;-92
2022/10/13 21:44:42;;;;;;;54.87;32.83;;;;;;;;;;6572571;28;20180;-90
2022/10/13 21:47:53;;;;;;;54.93;30.70;;;;;;;;;;6569927;28;20177;-91
2022/10/13 21:51:10;;;;;;;48.07;30.00;;;;;;;;;;6570011;28;20296;-91
2022/10/13 21:54:21;;;;;;;62.83;32.60;;;;;;;;;;6554339;28;20220;-90
2022/10/13 21:57:32;;;;;;;49.10;30.07;;;;;;;;;;6571610;28;20180;-90
2022/10/13 22:00:42;;;;;;;53.57;29.30;;;;;;;;;;6553803;28;20220;-89
2022/10/13 22:03:57;;;;;;;50.10;28.93;;;;;;;;;;6570998;28;20573;-89
2022/10/13 22:07:07;;;;;;;51.07;27.90;;;;;;;;;;6570598;28;20177;-89
2022/10/13 22:10:18;;;;;;;52.07;28.03;;;;;;;;;;6553499;28;20181;-89
2022/10/13 22:13:29;;;;;;;46.97;27.87;;;;;;;;;;6570829;28;20180;-89
2022/10/13 22:16:40;;;;;;;54.67;29.47;;;;;;;;;;6568855;28;20561;-89
2022/10/13 22:19:50;;;;;;;49.17;29.23;;;;;;;;;;6553278;28;20177;-89
2022/10/13 22:23:01;;;;;;;50.30;29.63;;;;;;;;;;6571362;28;20170;-89
2022/10/13 22:26:13;;;;;;;55.03;30.53;;;;;;;;;;6553024;28;20189;-89
2022/10/13 22:29:24;;;;;;;51.47;29.57;;;;;;;;;;6570906;28;20361;-89
2022/10/13 22:32:34;;;;;;;50.43;28.87;;;;;;;;;;6571594;28;20169;-89
2022/10/13 22:35:45;;;;;;;44.57;25.40;;;;;;;;;;6553207;28;20661;-89
2022/10/13 22:38:57;;;;;;;51.03;27.17;;;;;;;;;;6569411;28;20645;-89
2022/10/13 22:42:09;;;;;;;48.50;27.40;;;;;;;;;;6570133;28;20589;-90
2022/10/13 22:45:21;;;;;;;47.60;26.20;;;;;;;;;;6571237;28;20185;-89
2022/10/13 22:48:32;;;;;;;43.50;25.23;;;;;;;;;;6568242;28;20302;-91
2022/10/13 22:51:42;;;;;;;47.10;25.87;;;;;;;;;;6553003;28;20177;-91
2022/10/13 22:54:53;;;;;;;43.33;24.20;;;;;;;;;;6570176;28;20262;-91
2022/10/13 22:58:04;;;;;;;44.43;24.60;;;;;;;;;;6569396;28;20411;-91
2022/10/13 23:01:15;;;;;;;39.07;23.70;;;;;;;;;;6570181;28;20172;-91